Map

Track Data

SID SEASON NUMBER BASIN SUBBASIN NAME ISO_TIME NATURE LAT LON WMO_WIND WMO_PRES WMO_AGENCY TRACK_TYPE DIST2LAND LANDFALL IFLAG USA_AGENCY USA_ATCF_ID USA_LAT USA_LON USA_RECORD USA_STATUS USA_WIND USA_PRES USA_SSHS USA_R34_NE USA_R34_SE USA_R34_SW USA_R34_NW USA_R50_NE USA_R50_SE USA_R50_SW USA_R50_NW USA_R64_NE USA_R64_SE USA_R64_SW USA_R64_NW USA_POCI USA_ROCI USA_RMW USA_EYE TOKYO_LAT TOKYO_LON TOKYO_GRADE TOKYO_WIND TOKYO_PRES TOKYO_R50_DIR TOKYO_R50_LONG TOKYO_R50_SHORT TOKYO_R30_DIR TOKYO_R30_LONG TOKYO_R30_SHORT TOKYO_LAND CMA_LAT CMA_LON CMA_CAT CMA_WIND CMA_PRES HKO_LAT HKO_LON HKO_CAT HKO_WIND HKO_PRES NEWDELHI_LAT NEWDELHI_LON NEWDELHI_GRADE NEWDELHI_WIND NEWDELHI_PRES NEWDELHI_CI NEWDELHI_DP NEWDELHI_POCI REUNION_LAT REUNION_LON REUNION_TYPE REUNION_WIND REUNION_PRES REUNION_TNUM REUNION_CI REUNION_RMW REUNION_R34_NE REUNION_R34_SE REUNION_R34_SW REUNION_R34_NW REUNION_R50_NE REUNION_R50_SE REUNION_R50_SW REUNION_R50_NW REUNION_R64_NE REUNION_R64_SE REUNION_R64_SW REUNION_R64_NW BOM_LAT BOM_LON BOM_TYPE BOM_WIND BOM_PRES BOM_TNUM BOM_CI BOM_RMW BOM_R34_NE BOM_R34_SE BOM_R34_SW BOM_R34_NW BOM_R50_NE BOM_R50_SE BOM_R50_SW BOM_R50_NW BOM_R64_NE BOM_R64_SE BOM_R64_SW BOM_R64_NW BOM_ROCI BOM_POCI BOM_EYE BOM_POS_METHOD BOM_PRES_METHOD NADI_LAT NADI_LON NADI_CAT NADI_WIND NADI_PRES WELLINGTON_LAT WELLINGTON_LON WELLINGTON_WIND WELLINGTON_PRES DS824_LAT DS824_LON DS824_STAGE DS824_WIND DS824_PRES TD9636_LAT TD9636_LON TD9636_STAGE TD9636_WIND TD9636_PRES TD9635_LAT TD9635_LON TD9635_WIND TD9635_PRES TD9635_ROCI NEUMANN_LAT NEUMANN_LON NEUMANN_CLASS NEUMANN_WIND NEUMANN_PRES MLC_LAT MLC_LON MLC_CLASS MLC_WIND MLC_PRES USA_GUST BOM_GUST BOM_GUST_PER REUNION_GUST REUNION_GUST_PER USA_SEAHGT USA_SEARAD_NE USA_SEARAD_SE USA_SEARAD_SW USA_SEARAD_NW STORM_SPEED STORM_DIR
1989240N14256 1989 91 EP MM LORENA 1989-08-27 18:00:00 TS 13.7000 -104.000 25 1011 hurdat_epa main 504 486 O_________O___ hurdat_epa EP151989 13.7000 -104.000 TD 25 1011 -1 13.7000 -104.000 1 25 6 335
1989240N14256 1989 91 EP MM LORENA 1989-08-27 21:00:00 TS 13.9517 -104.124 main 475 458 P_________P___ EP151989 14.0000 -104.092 TD 25 1011 -1 13.9966 -104.091 1 25 6 335
1989240N14256 1989 91 EP MM LORENA 1989-08-28 00:00:00 TS 14.2250 -104.250 25 1011 hurdat_epa main 458 433 O_________O___ hurdat_epa EP151989 14.3000 -104.200 TD 25 1011 -1 14.3000 -104.200 1 25 6 337
1989240N14256 1989 91 EP MM LORENA 1989-08-28 03:00:00 TS 14.5334 -104.381 main 433 404 P_________P___ EP151989 14.6000 -104.335 TD 25 1010 -1 14.6136 -104.339 1 26 7 337
1989240N14256 1989 91 EP MM LORENA 1989-08-28 06:00:00 TS 14.8568 -104.526 25 1010 hurdat_epa main 394 369 O_________P___ hurdat_epa EP151989 14.9000 -104.500 TD 25 1010 -1 14.9272 -104.506 1 27 7 335
1989240N14256 1989 91 EP MM LORENA 1989-08-28 09:00:00 TS 15.1806 -104.695 main 369 346 P_________P___ EP151989 15.2150 -104.692 TD 27 1009 -1 15.2272 -104.695 1 28 7 332
1989240N14256 1989 91 EP MM LORENA 1989-08-28 12:00:00 TS 15.4750 -104.875 30 1009 hurdat_epa main 346 331 O_________O___ hurdat_epa EP151989 15.5000 -104.900 TD 30 1009 -1 15.5000 -104.900 1 30 6 328
1989240N14256 1989 91 EP MM LORENA 1989-08-28 15:00:00 TS 15.7088 -105.041 main 331 323 P_________P___ EP151989 15.7150 -105.093 TD 32 1008 -1 15.7327 -105.103 1 31 6 322
1989240N14256 1989 91 EP MM LORENA 1989-08-28 18:00:00 TS 15.9093 -105.230 35 1007 hurdat_epa main 323 318 O_________P___ hurdat_epa EP151989 15.9000 -105.300 TS 35 1007 0 15.9374 -105.320 1 32 6 314
1989240N14256 1989 91 EP MM LORENA 1989-08-28 21:00:00 TS 16.1096 -105.464 main 325 316 P_________P___ EP151989 16.1000 -105.543 TS 35 1006 0 16.1233 -105.553 1 33 6 309
1989240N14256 1989 91 EP MM LORENA 1989-08-29 00:00:00 TS 16.3000 -105.725 35 1005 hurdat_epa main 323 323 O_________O___ hurdat_epa EP151989 16.3000 -105.800 TS 35 1005 0 16.3000 -105.800 2 35 6 308
1989240N14256 1989 91 EP MM LORENA 1989-08-29 03:00:00 TS 16.4917 -105.980 main 327 316 P_________P___ EP151989 16.5074 -106.043 TS 37 1003 0 16.4943 -106.057 2 37 6 306
1989240N14256 1989 91 EP MM LORENA 1989-08-29 06:00:00 TS 16.6700 -106.257 40 1002 hurdat_epa main 321 317 O_________P___ hurdat_epa EP151989 16.7000 -106.300 TS 40 1002 0 16.6799 -106.328 2 40 7 301
1989240N14256 1989 91 EP MM LORENA 1989-08-29 09:00:00 TS 16.8345 -106.572 main 329 320 P_________P___ EP151989 16.8650 -106.593 TS 42 1001 0 16.8505 -106.610 2 42 7 296
1989240N14256 1989 91 EP MM LORENA 1989-08-29 12:00:00 TS 16.9750 -106.900 45 1000 hurdat_epa main 331 331 O_________O___ hurdat_epa EP151989 17.0000 -106.900 TS 45 1000 0 17.0000 -106.900 2 45 7 292
1989240N14256 1989 91 EP MM LORENA 1989-08-29 15:00:00 TS 17.0859 -107.213 main 345 345 P_________P___ EP151989 17.1075 -107.200 TS 47 999 0 17.1215 -107.193 2 46 6 289
1989240N14256 1989 91 EP MM LORENA 1989-08-29 18:00:00 TS 17.1806 -107.523 50 998 hurdat_epa main 360 360 O_________P___ hurdat_epa EP151989 17.2000 -107.500 TS 50 998 0 17.2224 -107.493 2 47 6 288
1989240N14256 1989 91 EP MM LORENA 1989-08-29 21:00:00 TS 17.2799 -107.838 main 376 376 P_________P___ EP151989 17.3000 -107.800 TS 50 997 0 17.3121 -107.796 2 48 6 288
1989240N14256 1989 91 EP MM LORENA 1989-08-30 00:00:00 TS 17.3750 -108.150 50 996 hurdat_epa main 399 399 O_________O___ hurdat_epa EP151989 17.4000 -108.100 TS 50 996 0 17.4000 -108.100 2 50 6 287
1989240N14256 1989 91 EP MM LORENA 1989-08-30 03:00:00 TS 17.4614 -108.455 main 417 417 P_________P___ EP151989 17.5000 -108.400 TS 52 995 0 17.4958 -108.404 2 51 6 287
1989240N14256 1989 91 EP MM LORENA 1989-08-30 06:00:00 TS 17.5481 -108.752 55 994 hurdat_epa main 443 437 O_________P___ hurdat_epa EP151989 17.6000 -108.700 TS 55 994 0 17.5924 -108.708 2 52 6 288
1989240N14256 1989 91 EP MM LORENA 1989-08-30 09:00:00 TS 17.6407 -109.043 main 455 455 P_________P___ EP151989 17.6925 -109.008 TS 55 994 0 17.6927 -109.007 2 53 6 290
1989240N14256 1989 91 EP MM LORENA 1989-08-30 12:00:00 TS 17.7500 -109.325 55 994 hurdat_epa main 469 469 O_________O___ hurdat_epa EP151989 17.8000 -109.300 TS 55 994 0 17.8000 -109.300 2 55 6 295
1989240N14256 1989 91 EP MM LORENA 1989-08-30 15:00:00 TS 17.8861 -109.591 main 491 491 P_________P___ EP151989 17.9499 -109.550 TS 55 994 0 17.9095 -109.578 2 55 6 299
1989240N14256 1989 91 EP MM LORENA 1989-08-30 18:00:00 TS 18.0318 -109.863 55 994 hurdat_epa main 513 508 O_________P___ hurdat_epa EP151989 18.1000 -109.800 TS 55 994 0 18.0272 -109.850 2 55 6 297
1989240N14256 1989 91 EP MM LORENA 1989-08-30 21:00:00 TS 18.1585 -110.164 main 526 516 P_________P___ EP151989 18.1925 -110.100 TS 55 994 0 18.1564 -110.122 2 55 6 295
1989240N14256 1989 91 EP MM LORENA 1989-08-31 00:00:00 TS 18.3000 -110.475 55 994 hurdat_epa main 517 497 O_________O___ hurdat_epa EP151989 18.3000 -110.400 TS 55 994 0 18.3000 -110.400 2 55 6 300
1989240N14256 1989 91 EP MM LORENA 1989-08-31 03:00:00 TS 18.4772 -110.751 main 499 481 P_________P___ EP151989 18.4924 -110.643 TS 55 993 0 18.4393 -110.633 2 56 7 305
1989240N14256 1989 91 EP MM LORENA 1989-08-31 06:00:00 TS 18.6740 -111.045 55 993 hurdat_epa main 481 475 O_________P___ hurdat_epa EP151989 18.7000 -110.900 TS 55 993 0 18.5959 -110.882 2 57 7 302
1989240N14256 1989 91 EP MM LORENA 1989-08-31 09:00:00 TS 18.8547 -111.382 main 470 464 P_________P___ EP151989 18.8273 -111.205 TS 57 992 0 18.7795 -111.190 2 58 8 299
1989240N14256 1989 91 EP MM LORENA 1989-08-31 12:00:00 TS 19.0750 -111.800 60 992 hurdat_epa main 464 457 O_________O___ hurdat_epa EP151989 19.0000 -111.600 TS 60 992 0 19.0000 -111.600 2 60 10 301
1989240N14256 1989 91 EP MM LORENA 1989-08-31 15:00:00 TS 19.3915 -112.322 main 458 456 P_________P___ EP151989 19.3347 -112.082 TS 60 991 0 19.2892 -112.188 2 60 13 301
1989240N14256 1989 91 EP MM LORENA 1989-08-31 18:00:00 TS 19.7271 -112.944 60 990 hurdat_epa main 467 465 O_________P___ hurdat_epa EP151989 19.7000 -112.700 TS 60 990 0 19.6083 -112.877 2 60 14 296
1989240N14256 1989 91 EP MM LORENA 1989-08-31 21:00:00 TS 20.0103 -113.657 main 501 501 P_________P___ EP151989 19.9730 -113.493 TS 60 989 0 19.9231 -113.602 2 60 14 291
1989240N14256 1989 91 EP MM LORENA 1989-09-01 00:00:00 TS 20.2500 -114.375 60 989 hurdat_epa main 539 539 O_________O___ hurdat_epa EP151989 20.2000 -114.300 TS 60 989 0 20.2000 -114.300 2 60 13 289
1989240N14256 1989 91 EP MM LORENA 1989-09-01 03:00:00 TS 20.4489 -114.985 main 563 554 P_________P___ EP151989 20.4069 -114.923 TS 62 989 0 20.4093 -114.900 2 62 12 288
1989240N14256 1989 91 EP MM LORENA 1989-09-01 06:00:00 TS 20.6250 -115.575 65 989 hurdat_epa main 582 579 O_________O___ hurdat_epa EP151989 20.6000 -115.500 HU 65 989 1 20.6000 -115.500 3 65 12 287
1989240N14256 1989 91 EP MM LORENA 1989-09-01 09:00:00 TS 20.8074 -116.220 main 605 605 P_________P___ EP151989 20.8075 -116.157 HU 65 989 1 20.8073 -116.152 3 65 12 286
1989240N14256 1989 91 EP MM LORENA 1989-09-01 12:00:00 TS 20.9750 -116.850 65 989 hurdat_epa main 641 641 O_________O___ hurdat_epa EP151989 21.0000 -116.800 HU 65 989 1 21.0000 -116.800 4 65 12 286
1989240N14256 1989 91 EP MM LORENA 1989-09-01 15:00:00 TS 21.1258 -117.408 main 673 673 P_________P___ EP151989 21.1647 -117.365 HU 62 990 0 21.1741 -117.393 4 62 11 285
1989240N14256 1989 91 EP MM LORENA 1989-09-01 18:00:00 TS 21.2551 -117.937 60 991 hurdat_epa main 701 701 O_________P___ hurdat_epa EP151989 21.3000 -117.900 TS 60 991 0 21.3206 -117.948 4 60 10 284
1989240N14256 1989 91 EP MM LORENA 1989-09-01 21:00:00 TS 21.3672 -118.480 main 747 747 P_________P___ EP151989 21.4148 -118.450 TS 57 992 0 21.4318 -118.479 4 57 10 281
1989240N14256 1989 91 EP MM LORENA 1989-09-02 00:00:00 TS 21.4500 -119.025 55 993 hurdat_epa main 786 792 O_________O___ hurdat_epa EP151989 21.5000 -119.000 TS 55 993 0 21.5000 -119.000 2 55 10 279
1989240N14256 1989 91 EP MM LORENA 1989-09-02 03:00:00 TS 21.5215 -119.582 main 826 826 P_________P___ EP151989 21.5799 -119.557 TS 52 994 0 21.5464 -119.557 2 52 10 275
1989240N14256 1989 91 EP MM LORENA 1989-09-02 06:00:00 TS 21.5369 -120.126 50 996 hurdat_epa main 859 859 O_________P___ hurdat_epa EP151989 21.6000 -120.100 TS 50 996 0 21.5474 -120.103 2 50 10 267
1989240N14256 1989 91 EP MM LORENA 1989-09-02 09:00:00 TS 21.4761 -120.647 main 893 893 P_________P___ EP151989 21.5374 -120.623 TS 47 997 0 21.4997 -120.622 2 47 9 259
1989240N14256 1989 91 EP MM LORENA 1989-09-02 12:00:00 TS 21.3500 -121.125 45 999 hurdat_epa main 935 935 O_________O___ hurdat_epa EP151989 21.4000 -121.100 TS 45 999 0 21.4000 -121.100 2 45 9 251
1989240N14256 1989 91 EP MM LORENA 1989-09-02 15:00:00 TS 21.1772 -121.558 main 986 986 P_________P___ EP151989 21.2148 -121.523 TS 42 1000 0 21.2215 -121.556 2 42 8 244
1989240N14256 1989 91 EP MM LORENA 1989-09-02 18:00:00 TS 20.9749 -121.941 40 1002 hurdat_epa main 1023 1023 O_________P___ hurdat_epa EP151989 21.0000 -121.900 TS 40 1002 0 20.9997 -121.964 2 40 8 240
1989240N14256 1989 91 EP MM LORENA 1989-09-02 21:00:00 TS 20.7689 -122.301 main 1067 1067 P_________P___ EP151989 20.7775 -122.280 TS 37 1003 0 20.7780 -122.315 2 37 7 239
1989240N14256 1989 91 EP MM LORENA 1989-09-03 00:00:00 TS 20.6000 -122.600 35 1005 hurdat_epa main 1105 1105 O_________O___ hurdat_epa EP151989 20.6000 -122.600 TS 35 1005 0 20.6000 -122.600 2 35 6 243
1989240N14256 1989 91 EP MM LORENA 1989-09-03 03:00:00 TS 20.5112 -122.831 main 1127 1127 P_________P___ EP151989 20.5199 -122.837 TS 32 1005 -1 20.5202 -122.826 2 33 4 251
1989240N14256 1989 91 EP MM LORENA 1989-09-03 06:00:00 TS 20.4724 -122.997 30 1006 hurdat_epa main 1142 1142 O_________P___ hurdat_epa EP151989 20.5000 -123.000 TD 30 1006 -1 20.4895 -122.989 2 32 3 258
1989240N14256 1989 91 EP MM LORENA 1989-09-03 09:00:00 TS 20.4523 -123.131 main 1149 1149 P_________P___ EP151989 20.4925 -123.122 TD 30 1006 -1 20.4891 -123.108 2 31 2 264
1989240N14256 1989 91 EP MM LORENA 1989-09-03 12:00:00 TS 20.4500 -123.225 30 1007 hurdat_epa main 1156 1156 O_________O___ hurdat_epa EP151989 20.5000 -123.200 TD 30 1007 -1 20.5000 -123.200 1 30 1 268
1989240N14256 1989 91 EP MM LORENA 1989-09-03 15:00:00 TS 20.4463 -123.285 main 1171 1171 P_________P___ EP151989 20.5000 -123.250 TD 30 1007 -1 20.4926 -123.276 1 30 1 269
1989240N14256 1989 91 EP MM LORENA 1989-09-03 18:00:00 TS 20.4481 -123.334 30 1008 hurdat_epa main 1171 1171 O_________P___ hurdat_epa EP151989 20.5000 -123.300 TD 30 1008 -1 20.4923 -123.335 1 30 1 270
1989240N14256 1989 91 EP MM LORENA 1989-09-03 21:00:00 TS 20.4470 -123.400 main 1179 1179 P_________P___ EP151989 20.5000 -123.378 TD 30 1008 -1 20.4957 -123.401 1 30 2 271
1989240N14256 1989 91 EP MM LORENA 1989-09-04 00:00:00 TS 20.4500 -123.500 30 1008 hurdat_epa main 1178 1178 O_________O___ hurdat_epa EP151989 20.5000 -123.500 TD 30 1008 -1 20.5000 -123.500 1 30 2 273
1989240N14256 1989 91 EP MM LORENA 1989-09-04 03:00:00 TS 20.4596 -123.649 main 1186 1186 P_________P___ EP151989 20.5000 -123.685 TD 27 1008 -1 20.4959 -123.656 1 28 3 274
1989240N14256 1989 91 EP MM LORENA 1989-09-04 06:00:00 TS 20.4731 -123.837 25 1009 hurdat_epa main 1200 1200 O_________P___ hurdat_epa EP151989 20.5000 -123.900 TD 25 1009 -1 20.4925 -123.848 1 27 4 274
1989240N14256 1989 91 EP MM LORENA 1989-09-04 09:00:00 TS 20.4876 -124.050 main 1223 1223 P_________P___ EP151989 20.5000 -124.100 TD 25 1009 -1 20.4928 -124.065 1 26 4 274
1989240N14256 1989 91 EP MM LORENA 1989-09-04 12:00:00 TS 20.5000 -124.275 25 1009 hurdat_epa main 1239 1239 O_________O___ hurdat_epa EP151989 20.5000 -124.300 TD 25 1009 -1 20.5000 -124.300 1 25 4 272
1989240N14256 1989 91 EP MM LORENA 1989-09-04 15:00:00 TS 20.4996 -124.473 main 1254 1254 P_________P___ EP151989 20.4924 -124.485 TD 25 1009 -1 20.5136 -124.523 1 25 4 271
1989240N14256 1989 91 EP MM LORENA 1989-09-04 18:00:00 TS 20.5087 -124.691 25 1009 hurdat_epa main 1270 1270 O_________P___ hurdat_epa EP151989 20.5000 -124.700 TD 25 1009 -1 20.5348 -124.763 1 25 5 276
1989240N14256 1989 91 EP MM LORENA 1989-09-04 21:00:00 TS 20.5478 -124.956 main 1293 1286 P_________P___ EP151989 20.5425 -124.985 TD 25 1009 -1 20.5635 -125.020 1 25 5 280
1989240N14256 1989 91 EP MM LORENA 1989-09-05 00:00:00 TS 20.6000 -125.250 25 1009 hurdat_epa main 1310 1310 O_________O___ hurdat_epa EP151989 20.6000 -125.300 TD 25 1009 -1 20.6000 -125.300 1 25 6 281
1989240N14256 1989 91 EP MM LORENA 1989-09-05 03:00:00 TS 20.6502 -125.542 main 1319 1319 P_________P___ EP151989 20.6499 -125.593 TD 25 1009 -1 20.6509 -125.599 1 25 6 280
1989240N14256 1989 91 EP MM LORENA 1989-09-05 06:00:00 TS 20.7019 -125.855 25 1010 hurdat_epa main 1352 1352 O_________P___ hurdat_epa EP151989 20.7000 -125.900 TD 25 1010 -1 20.7074 -125.920 1 25 6 280
1989240N14256 1989 91 EP MM LORENA 1989-09-05 09:00:00 TS 20.7579 -126.169 main 1370 1370 P_________P___ EP151989 20.7570 -126.190 TD 25 1010 -1 20.7602 -126.255 1 25 7 279
1989240N14256 1989 91 EP MM LORENA 1989-09-05 12:00:00 TS 20.8000 -126.550 25 1010 hurdat_epa main 1396 1404 O_________O___ hurdat_epa EP151989 20.8000 -126.600 TD 25 1010 -1 20.8000 -126.600 1 25 9 274
1989240N14256 1989 91 EP MM LORENA 1989-09-05 15:00:00 TS 20.8126 -127.100 main 1446 1446 P_________P___ EP151989 20.8086 -127.353 TD 25 1010 -1 20.8183 -126.943 1 25 10 270
1989240N14256 1989 91 EP MM LORENA 1989-09-05 18:00:00 TS 20.8056 -127.598 25 1011 hurdat_epa main 1490 1490 O_________P___ hurdat_epa EP151989 20.8000 -128.000 TD 25 1011 -1 20.8223 -127.293 1 25 7 268
1989240N14256 1989 91 EP MM LORENA 1989-09-05 21:00:00 TS 20.7929 -127.800 main 1507 1507 P_________P___ EP151989 20.7995 -128.052 TD 25 1011 -1 20.8152 -127.646 1 25 3 265
1989240N14256 1989 91 EP MM LORENA 1989-09-06 00:00:00 TS 20.7750 -127.950 25 1011 hurdat_epa main 1524 1524 O_________O___ hurdat_epa EP151989 20.8000 -128.000 TD 25 1011 -1 20.8000 -128.000 1 25 4 266
1989240N14256 1989 91 EP MM LORENA 1989-09-06 03:00:00 TS 20.7622 -128.272 main 1550 1550 P_________P___ EP151989 20.8076 -128.297 TD 22 1011 -1 20.7761 -128.350 1 23 7 267
1989240N14256 1989 91 EP MM LORENA 1989-09-06 06:00:00 TS 20.7366 -128.650 20 1012 hurdat_epa main 1592 1592 O_________P___ hurdat_epa EP151989 20.8000 -128.700 TD 20 1012 -1 20.7464 -128.700 1 22 7 264
1989240N14256 1989 91 EP MM LORENA 1989-09-06 09:00:00 TS 20.6889 -129.007 main 1618 1618 P_________P___ EP151989 20.7499 -129.050 TD 20 1012 -1 20.7185 -129.050 1 21 7 259
1989240N14256 1989 91 EP MM LORENA 1989-09-06 12:00:00 TS 20.6077 -129.369 20 1012 hurdat_epa main 1659 1659 O_________O___ hurdat_epa EP151989 20.7000 -129.400 TD 20 1012 -1 20.7000 -129.400 1 20 7 252
1989240N14256 1989 91 EP MM LORENA 1989-09-06 15:00:00 TS 20.4603 -129.767 main 1701 1701 P_________P___ EP151989 20.7897 -129.719 TD 20 1012 -1 20.6959 -129.750 1 20 9 242
1989240N14256 1989 91 EP MM LORENA 1989-09-06 18:00:00 TS 20.1857 -130.214 20 1013 hurdat_epa main 1754 1754 O_________O___ hurdat_epa EP151989 20.7000 -130.100 TD 20 1013 -1 20.7000 -130.100 1 20 13 225
1989240N14256 1989 91 EP MM LORENA 1989-09-06 21:00:00 NR 19.5324 -130.765 main 1849 1849 P_____________ EP151989 20.0278 -130.645 TD 22 -1 1 12 230
1989240N14256 1989 91 EP MM LORENA 1989-09-07 00:00:00 NR 19.4000 -131.200 main 1890 1890 O_____________ jtwc_ep EP151989 19.4000 -131.200 25 8 267
1989240N14256 1989 91 EP MM LORENA 1989-09-07 03:00:00 NR 19.4852 -131.607 main 1920 1920 P_____________ EP151989 19.3574 -131.638 25 8 292
1989240N14256 1989 91 EP MM LORENA 1989-09-07 06:00:00 NR 19.7000 -132.000 main 1944 O_____________ jtwc_ep EP151989 19.7000 -132.000 25 9 300

About IBTrACS Database

This database is a web-friendly format of International Best Track Archive for Climate Stewardship (IBTrACS), a global best track data archive curated by NOAA dating back to 1842.

Updated: 2021-10-08